Time;durP1;ratioP1;P1;durP2;ratioP2;P2;SDS_P1;SDS_P2;PMS_P1;PMS_P2;Temp;Humidity;BMP_temperature;BMP_pressure;BME280_temperature;BME280_humidity;BME280_pressure;Samples;Min_cycle;Max_cycle;Signal;HPM_P1;HPM_P2
2022/01/20 00:01:44;;;;;;;38.88;22.58;;;6.80;99.90;;;;;;4923845;29;20051;-83
2022/01/20 00:04:23;;;;;;;36.47;22.52;;;6.80;99.90;;;;;;4917220;29;20083;-83
2022/01/20 00:23:11;;;;;;;36.28;21.58;;;6.90;99.90;;;;;;4923828;29;20087;-82
2022/01/20 00:28:50;;;;;;;34.67;22.08;;;7.00;99.90;;;;;;4920465;29;20095;-79
2022/01/20 00:33:47;;;;;;;38.65;21.52;;;7.10;99.90;;;;;;4927614;29;20444;-81
2022/01/20 00:38:42;;;;;;;34.88;22.40;;;7.10;99.90;;;;;;4935131;29;20457;-76
2022/01/20 00:41:14;;;;;;;34.13;20.52;;;7.20;99.90;;;;;;4915721;29;20048;-82
2022/01/20 00:43:42;;;;;;;31.40;20.38;;;7.20;99.90;;;;;;4928211;29;20040;-82
2022/01/20 00:46:07;;;;;;;33.25;21.30;;;7.20;99.90;;;;;;4898879;29;20549;-75
2022/01/20 00:48:33;;;;;;;33.58;20.58;;;7.20;99.90;;;;;;4926174;29;20035;-83
2022/01/20 00:50:59;;;;;;;36.65;22.00;;;7.20;99.90;;;;;;4934935;29;20057;-83
2022/01/20 00:53:25;;;;;;;37.65;21.88;;;7.20;99.90;;;;;;4924001;29;20103;-82
2022/01/20 00:55:51;;;;;;;38.50;22.48;;;7.20;99.90;;;;;;4905373;29;20036;-82
2022/01/20 00:58:16;;;;;;;36.90;21.80;;;7.20;99.90;;;;;;4925711;29;20524;-82
2022/01/20 01:00:42;;;;;;;39.55;23.67;;;7.20;99.90;;;;;;4934701;29;20038;-81
2022/01/20 01:03:08;;;;;;;34.95;22.65;;;7.20;99.90;;;;;;4932788;29;20397;-82
2022/01/20 01:05:40;;;;;;;32.88;21.80;;;7.30;99.90;;;;;;4906316;29;20079;-83
2022/01/20 01:08:07;;;;;;;40.90;23.10;;;7.30;99.90;;;;;;4915779;29;20054;-82
2022/01/20 01:10:38;;;;;;;40.83;22.50;;;7.30;99.90;;;;;;4915964;29;20028;-82
2022/01/20 01:13:09;;;;;;;38.85;24.10;;;7.40;99.90;;;;;;4915795;29;20031;-79
2022/01/20 01:15:41;;;;;;;37.70;23.85;;;7.40;99.90;;;;;;4915481;29;20032;-81
2022/01/20 01:23:43;;;;;;;34.63;21.63;;;7.50;99.90;;;;;;4917075;29;20077;-79
2022/01/20 01:26:14;;;;;;;36.72;22.08;;;7.60;99.90;;;;;;4918319;29;20027;-82
2022/01/20 01:28:41;;;;;;;30.52;19.10;;;7.50;99.90;;;;;;4919064;29;20075;-82
2022/01/20 01:33:49;;;;;;;29.77;20.33;;;7.60;99.90;;;;;;4919274;29;20493;-82
2022/01/20 01:36:19;;;;;;;36.40;22.33;;;7.60;99.90;;;;;;4902432;29;20362;-82
2022/01/20 01:38:45;;;;;;;32.45;20.85;;;7.60;99.90;;;;;;4918328;29;20092;-82
2022/01/20 01:41:15;;;;;;;32.22;20.20;;;7.50;99.90;;;;;;4917746;29;20041;-79
2022/01/20 01:43:46;;;;;;;32.83;20.80;;;7.50;99.90;;;;;;4917806;29;20040;-83
2022/01/20 01:46:12;;;;;;;33.58;21.80;;;7.50;99.90;;;;;;4918947;29;20481;-81
2022/01/20 01:48:42;;;;;;;38.92;23.27;;;7.50;99.90;;;;;;4918516;29;20043;-81
2022/01/20 01:51:09;;;;;;;39.03;22.20;;;7.50;99.90;;;;;;4919296;29;20481;-80
2022/01/20 01:53:37;;;;;;;38.78;22.77;;;7.50;99.90;;;;;;4918940;29;20389;-82
2022/01/20 01:56:04;;;;;;;37.63;22.60;;;7.50;99.90;;;;;;4919553;29;20024;-80
2022/01/20 01:58:29;;;;;;;34.53;22.52;;;7.50;99.90;;;;;;4919204;29;20103;-80
2022/01/20 02:00:56;;;;;;;33.35;21.80;;;7.50;99.90;;;;;;4919191;29;20452;-82
2022/01/20 02:03:23;;;;;;;35.80;22.98;;;7.60;99.90;;;;;;4918869;29;20039;-83
2022/01/20 02:19:14;;;;;;;37.45;23.33;;;7.80;99.90;;;;;;4919140;29;20035;-82
2022/01/20 02:21:51;;;;;;;38.30;23.90;;;7.90;99.90;;;;;;4918574;29;20083;-78
2022/01/20 02:24:17;;;;;;;37.40;22.70;;;7.90;99.90;;;;;;4918948;29;20055;-82
2022/01/20 02:26:43;;;;;;;39.85;24.02;;;7.90;99.90;;;;;;4919042;29;20032;-82
2022/01/20 02:29:09;;;;;;;35.40;22.67;;;8.00;99.90;;;;;;4918371;29;20216;-83
2022/01/20 02:31:35;;;;;;;37.47;23.52;;;8.00;99.90;;;;;;4917917;29;20035;-81
2022/01/20 02:34:01;;;;;;;41.08;25.02;;;7.90;99.90;;;;;;4917397;29;20465;-79
2022/01/20 02:36:28;;;;;;;39.30;25.63;;;7.90;99.90;;;;;;4907870;29;20080;-82
2022/01/20 02:39:08;;;;;;;42.67;25.73;;;7.80;99.90;;;;;;4899291;29;20033;-82
2022/01/20 02:47:12;;;;;;;45.80;27.05;;;7.60;99.90;;;;;;4899424;29;20057;-79
2022/01/20 02:49:38;;;;;;;46.50;27.00;;;7.60;99.90;;;;;;4899272;29;20029;-81
2022/01/20 02:52:06;;;;;;;43.33;26.02;;;7.50;99.90;;;;;;4897871;29;20037;-81
2022/01/20 02:54:31;;;;;;;43.42;27.77;;;7.40;99.90;;;;;;4898802;29;20021;-82
2022/01/20 02:56:57;;;;;;;45.65;27.88;;;7.30;99.90;;;;;;4898275;29;20462;-82
2022/01/20 02:59:23;;;;;;;40.60;26.30;;;7.30;99.90;;;;;;4899179;29;20382;-83
2022/01/20 03:01:49;;;;;;;43.05;27.25;;;7.30;99.90;;;;;;4899403;29;20040;-82
2022/01/20 03:04:15;;;;;;;45.35;26.80;;;7.30;99.90;;;;;;4899044;29;20033;-77
2022/01/20 03:06:41;;;;;;;41.60;25.95;;;7.30;99.90;;;;;;4899756;29;20552;-80
2022/01/20 03:09:07;;;;;;;46.90;27.08;;;7.40;99.90;;;;;;4899420;29;20128;-74
2022/01/20 03:11:33;;;;;;;42.53;27.58;;;7.40;99.90;;;;;;4899337;29;20474;-82
2022/01/20 03:13:59;;;;;;;44.88;26.95;;;7.40;99.90;;;;;;4898695;29;20057;-81
2022/01/20 03:16:24;;;;;;;47.42;26.00;;;7.40;99.90;;;;;;4899134;29;20017;-82
2022/01/20 03:18:50;;;;;;;44.80;26.58;;;7.40;99.90;;;;;;4898978;29;20379;-77
2022/01/20 03:21:16;;;;;;;45.13;27.42;;;7.40;99.90;;;;;;4899089;29;20109;-82
2022/01/20 03:23:42;;;;;;;48.72;28.83;;;7.40;99.90;;;;;;4898350;29;20043;-81
2022/01/20 03:26:08;;;;;;;44.92;27.27;;;7.40;99.90;;;;;;4898767;29;20047;-82
2022/01/20 03:28:36;;;;;;;43.20;26.13;;;7.40;99.90;;;;;;4898870;29;20546;-82
2022/01/20 03:31:02;;;;;;;40.30;25.55;;;7.40;99.90;;;;;;4897492;29;20492;-82
2022/01/20 03:33:28;;;;;;;39.08;25.63;;;7.40;99.90;;;;;;4897214;29;20111;-82
2022/01/20 03:35:53;;;;;;;52.67;31.60;;;7.40;99.90;;;;;;4897568;29;20112;-81
2022/01/20 03:38:20;;;;;;;45.53;29.98;;;7.40;99.90;;;;;;4898799;29;20501;-80
2022/01/20 03:40:46;;;;;;;47.97;28.73;;;7.30;99.90;;;;;;4898167;29;20048;-80
2022/01/20 03:43:12;;;;;;;46.00;27.95;;;7.30;99.90;;;;;;4898297;29;20621;-82
2022/01/20 03:45:38;;;;;;;43.67;27.30;;;7.30;99.90;;;;;;4897972;29;20570;-83
2022/01/20 03:48:11;;;;;;;49.72;28.17;;;7.30;99.90;;;;;;4897936;29;20493;-82
2022/01/20 03:53:23;;;;;;;40.83;26.02;;;7.30;99.90;;;;;;4926619;29;20401;-82
2022/01/20 03:55:48;;;;;;;41.55;27.15;;;7.30;99.90;;;;;;4930708;29;20028;-81
2022/01/20 03:58:14;;;;;;;45.47;27.70;;;7.30;99.90;;;;;;4928791;29;20359;-82
2022/01/20 04:00:40;;;;;;;41.33;26.15;;;7.30;99.90;;;;;;4917295;29;20375;-81
2022/01/20 04:03:06;;;;;;;41.28;27.77;;;7.30;99.90;;;;;;4918889;29;20103;-80
2022/01/20 04:05:32;;;;;;;47.10;28.77;;;7.30;99.90;;;;;;4935314;29;20087;-81
2022/01/20 04:07:57;;;;;;;48.22;29.60;;;7.40;99.90;;;;;;4934693;29;20035;-82
2022/01/20 04:10:23;;;;;;;46.00;27.98;;;7.40;99.90;;;;;;4920176;29;20034;-82
2022/01/20 04:12:49;;;;;;;48.92;29.20;;;7.40;99.90;;;;;;4931282;29;20027;-82
2022/01/20 04:15:17;;;;;;;55.45;32.80;;;7.50;99.90;;;;;;4934642;29;20064;-76
2022/01/20 04:17:50;;;;;;;55.55;33.05;;;7.50;99.90;;;;;;4900773;29;20028;-82
2022/01/20 04:20:16;;;;;;;55.90;33.92;;;7.50;99.90;;;;;;4930340;29;20031;-82
2022/01/20 04:22:42;;;;;;;59.60;34.28;;;7.50;99.90;;;;;;4935755;29;20042;-81
2022/01/20 04:25:08;;;;;;;61.47;35.55;;;7.60;99.90;;;;;;4917128;29;20024;-81
2022/01/20 04:27:33;;;;;;;62.42;34.35;;;7.60;99.90;;;;;;4934367;29;20401;-82
2022/01/20 04:29:59;;;;;;;61.97;35.58;;;7.60;99.90;;;;;;4931055;29;20024;-82
2022/01/20 04:32:25;;;;;;;63.63;35.60;;;7.60;99.90;;;;;;4920463;29;20028;-82
2022/01/20 04:34:51;;;;;;;81.18;42.65;;;7.60;99.90;;;;;;4935650;29;20028;-82
2022/01/20 04:37:17;;;;;;;76.03;40.72;;;7.60;99.90;;;;;;4927419;29;20400;-82
2022/01/20 04:39:48;;;;;;;62.30;37.92;;;7.70;99.90;;;;;;4928607;29;20044;-82
2022/01/20 04:42:14;;;;;;;55.92;31.90;;;7.70;99.90;;;;;;4916097;29;20040;-81
2022/01/20 04:44:49;;;;;;;56.70;32.55;;;7.70;99.90;;;;;;4930607;29;20377;-82
2022/01/20 04:58:19;;;;;;;60.63;36.40;;;7.60;99.90;;;;;;4932585;29;20043;-82
2022/01/20 05:00:45;;;;;;;68.05;38.28;;;7.50;99.90;;;;;;4935005;29;20023;-82
2022/01/20 05:03:11;;;;;;;77.10;42.80;;;7.50;99.90;;;;;;4896478;29;20036;-81
2022/01/20 05:05:37;;;;;;;69.25;40.97;;;7.50;99.90;;;;;;4921015;29;20035;-82
2022/01/20 05:08:02;;;;;;;62.05;38.75;;;7.40;99.90;;;;;;4916425;29;20028;-82
2022/01/20 05:10:30;;;;;;;65.00;37.35;;;7.30;99.90;;;;;;4926381;29;20027;-82
2022/01/20 05:15:24;;;;;;;73.50;36.45;;;7.30;99.90;;;;;;4924468;29;20500;-83
2022/01/20 05:17:51;;;;;;;61.72;35.72;;;7.30;99.90;;;;;;4918527;29;20044;-76
2022/01/20 05:20:17;;;;;;;61.90;36.55;;;7.30;99.90;;;;;;4900932;29;20028;-82
2022/01/20 05:22:43;;;;;;;64.35;35.00;;;7.30;99.90;;;;;;4918904;29;20054;-82
2022/01/20 05:25:09;;;;;;;60.50;35.30;;;7.30;99.90;;;;;;4931441;29;20035;-82
2022/01/20 05:27:35;;;;;;;73.00;37.85;;;7.30;99.90;;;;;;4922124;29;20024;-82
2022/01/20 05:30:01;;;;;;;67.25;36.97;;;7.30;99.90;;;;;;4922801;29;20366;-81
2022/01/20 05:32:27;;;;;;;64.63;36.08;;;7.30;99.90;;;;;;4918210;29;20122;-79
2022/01/20 05:34:53;;;;;;;62.47;36.30;;;7.40;99.90;;;;;;4926562;29;20044;-82
2022/01/20 05:37:19;;;;;;;66.10;36.45;;;7.40;99.90;;;;;;4919879;29;20036;-82
2022/01/20 05:39:46;;;;;;;64.78;41.53;;;7.40;99.90;;;;;;4929231;29;20488;-81
2022/01/20 05:42:11;;;;;;;68.28;42.42;;;7.50;99.90;;;;;;4928198;29;20039;-81
2022/01/20 05:44:37;;;;;;;77.95;46.60;;;7.50;99.90;;;;;;4920387;29;20389;-82
2022/01/20 05:47:09;;;;;;;72.53;41.95;;;7.60;99.90;;;;;;4923566;29;20056;-79
2022/01/20 05:49:35;;;;;;;73.75;41.92;;;7.60;99.90;;;;;;4918803;29;20482;-81
2022/01/20 05:52:01;;;;;;;74.03;42.40;;;7.60;99.90;;;;;;4915527;29;20036;-82
2022/01/20 05:54:27;;;;;;;67.28;40.03;;;7.60;99.90;;;;;;4916998;29;20036;-80
2022/01/20 05:56:53;;;;;;;64.53;39.45;;;7.70;99.90;;;;;;4927893;29;20086;-83
2022/01/20 05:59:19;;;;;;;72.00;40.25;;;7.70;99.90;;;;;;4920939;29;20506;-75
2022/01/20 06:01:51;;;;;;;68.00;40.67;;;7.70;99.90;;;;;;4932067;29;20028;-83
2022/01/20 06:04:17;;;;;;;80.53;45.50;;;7.70;99.90;;;;;;4920584;29;20040;-82
2022/01/20 06:06:44;;;;;;;72.53;44.33;;;7.70;99.90;;;;;;4917155;29;20025;-83
2022/01/20 06:09:10;;;;;;;69.28;42.95;;;7.70;99.90;;;;;;4935426;29;20055;-75
2022/01/20 06:11:36;;;;;;;68.43;41.72;;;7.70;99.90;;;;;;4924569;29;20059;-77
2022/01/20 06:14:02;;;;;;;73.82;41.05;;;7.80;99.90;;;;;;4919025;29;20036;-83
2022/01/20 06:16:28;;;;;;;60.17;38.72;;;7.80;99.90;;;;;;4901992;29;20052;-83
2022/01/20 06:18:53;;;;;;;57.30;36.17;;;7.80;99.90;;;;;;4918794;29;20103;-81
2022/01/20 06:21:19;;;;;;;57.13;33.15;;;7.80;99.90;;;;;;4919044;29;20028;-76
2022/01/20 06:23:45;;;;;;;64.55;32.97;;;7.90;99.90;;;;;;4926873;29;20083;-82
2022/01/20 06:26:11;;;;;;;52.80;32.13;;;7.90;99.90;;;;;;4909654;29;20481;-80
2022/01/20 06:28:40;;;;;;;52.92;33.63;;;7.90;99.90;;;;;;4926792;29;20032;-84
2022/01/20 06:31:06;;;;;;;61.50;37.95;;;7.90;99.90;;;;;;4904636;29;20029;-82
2022/01/20 06:33:32;;;;;;;73.88;44.28;;;7.90;99.90;;;;;;4929889;29;20111;-80
2022/01/20 06:35:57;;;;;;;62.88;38.78;;;8.00;99.90;;;;;;4936745;29;20556;-80
2022/01/20 06:38:24;;;;;;;61.03;36.55;;;8.00;99.90;;;;;;4921668;29;20039;-82
2022/01/20 06:40:49;;;;;;;61.88;36.80;;;8.00;99.90;;;;;;4922463;29;20112;-75
2022/01/20 06:43:16;;;;;;;61.50;35.83;;;8.00;99.90;;;;;;4901733;29;20500;-77
2022/01/20 06:45:41;;;;;;;63.40;37.53;;;8.00;99.90;;;;;;4916974;29;20076;-74
2022/01/20 06:48:07;;;;;;;68.90;40.08;;;8.00;99.90;;;;;;4899492;29;20071;-80
2022/01/20 06:50:33;;;;;;;72.13;40.85;;;8.00;99.90;;;;;;4899082;29;20055;-78
2022/01/20 06:52:59;;;;;;;68.47;39.15;;;8.00;99.90;;;;;;4898262;29;20028;-74
2022/01/20 06:55:25;;;;;;;68.57;39.60;;;8.10;99.90;;;;;;4881492;29;20024;-79
2022/01/20 06:57:50;;;;;;;72.43;38.38;;;8.00;99.90;;;;;;4899396;29;20039;-80
2022/01/20 07:00:19;;;;;;;65.00;41.33;;;8.00;99.90;;;;;;4899396;29;20064;-80
2022/01/20 07:02:47;;;;;;;76.78;43.67;;;8.00;99.90;;;;;;4899492;29;20041;-81
2022/01/20 07:05:16;;;;;;;80.68;46.97;;;7.90;99.90;;;;;;4899141;29;20024;-80
2022/01/20 07:07:42;;;;;;;85.25;50.60;;;7.90;99.90;;;;;;4899003;29;20028;-79
2022/01/20 07:10:10;;;;;;;82.45;48.78;;;7.90;99.90;;;;;;4899302;29;20415;-80
2022/01/20 07:12:36;;;;;;;93.93;49.63;;;7.90;99.90;;;;;;4899488;29;20100;-80
2022/01/20 07:15:03;;;;;;;69.55;39.42;;;7.90;99.90;;;;;;4899018;29;20096;-79
2022/01/20 07:17:28;;;;;;;68.47;38.95;;;7.90;99.90;;;;;;4898566;29;20044;-78
2022/01/20 07:19:54;;;;;;;85.80;40.03;;;7.80;99.90;;;;;;4898448;29;20025;-80
2022/01/20 07:22:20;;;;;;;68.38;38.88;;;7.80;99.90;;;;;;4898979;29;20112;-80
2022/01/20 07:24:47;;;;;;;62.55;37.60;;;7.80;99.90;;;;;;4897774;29;20036;-80
2022/01/20 07:27:13;;;;;;;69.57;39.83;;;7.70;99.90;;;;;;4899166;29;20040;-79
2022/01/20 07:29:39;;;;;;;83.03;44.05;;;7.70;99.90;;;;;;4898175;29;20024;-80
2022/01/20 07:32:06;;;;;;;76.68;44.42;;;7.70;99.90;;;;;;4899103;29;20025;-79
2022/01/20 07:34:33;;;;;;;78.93;43.72;;;7.60;99.90;;;;;;4899040;29;20093;-79
2022/01/20 07:37:00;;;;;;;70.78;41.67;;;7.60;99.90;;;;;;4899221;29;20581;-78
2022/01/20 07:39:27;;;;;;;82.07;43.97;;;7.60;99.90;;;;;;4898274;29;20103;-77
2022/01/20 07:41:52;;;;;;;70.68;42.00;;;7.60;99.90;;;;;;4898325;29;20034;-80
2022/01/20 07:44:19;;;;;;;74.78;42.55;;;7.50;99.90;;;;;;4898532;29;20044;-78
2022/01/20 07:46:46;;;;;;;73.93;42.03;;;7.50;99.90;;;;;;4897576;29;20024;-80
2022/01/20 07:49:13;;;;;;;71.03;42.38;;;7.50;99.90;;;;;;4898801;29;20054;-79
2022/01/20 07:51:38;;;;;;;80.07;44.70;;;7.50;99.90;;;;;;4881794;29;20043;-80
2022/01/20 07:54:04;;;;;;;73.47;42.40;;;7.50;99.90;;;;;;4898599;29;20028;-78
2022/01/20 07:56:30;;;;;;;74.78;43.38;;;7.50;99.90;;;;;;4898417;29;20029;-79
2022/01/20 07:58:55;;;;;;;74.50;42.65;;;7.60;99.90;;;;;;4898104;29;20033;-78
2022/01/20 08:01:24;;;;;;;80.57;44.30;;;7.60;99.90;;;;;;4898110;29;20024;-81
2022/01/20 08:03:52;;;;;;;84.18;44.65;;;7.70;99.90;;;;;;4897967;29;20042;-80
2022/01/20 08:06:18;;;;;;;83.28;46.75;;;7.70;99.90;;;;;;4898179;29;20107;-80
2022/01/20 08:08:44;;;;;;;83.30;43.10;;;7.70;99.90;;;;;;4898497;29;20029;-81
2022/01/20 08:11:10;;;;;;;82.13;42.58;;;7.80;99.90;;;;;;4898172;29;20422;-80
2022/01/20 08:13:35;;;;;;;81.78;43.22;;;7.80;99.90;;;;;;4897845;29;20029;-80
2022/01/20 08:16:01;;;;;;;78.70;43.25;;;7.80;99.90;;;;;;4904823;29;20024;-79
2022/01/20 08:18:26;;;;;;;75.55;44.50;;;7.80;99.90;;;;;;4913608;29;20032;-79
2022/01/20 08:20:52;;;;;;;81.07;44.15;;;7.90;99.90;;;;;;4899978;29;20024;-81
2022/01/20 08:23:18;;;;;;;80.90;47.03;;;7.90;99.90;;;;;;4916000;29;20755;-81
2022/01/20 08:25:44;;;;;;;89.30;52.90;;;7.90;99.90;;;;;;4916889;29;20063;-80
2022/01/20 08:28:09;;;;;;;86.05;51.63;;;7.90;99.90;;;;;;4913900;29;20033;-80
2022/01/20 08:30:35;;;;;;;85.68;50.00;;;7.90;99.90;;;;;;4915531;29;20036;-79
2022/01/20 08:33:01;;;;;;;81.57;49.47;;;7.90;99.90;;;;;;4913947;29;20084;-78
2022/01/20 08:35:31;;;;;;;100.13;50.47;;;7.90;99.90;;;;;;4909846;29;20031;-80
2022/01/20 08:37:59;;;;;;;90.30;52.38;;;7.90;99.90;;;;;;4911091;29;20477;-80
2022/01/20 08:40:26;;;;;;;89.13;45.78;;;7.80;99.90;;;;;;4918783;29;20044;-79
2022/01/20 08:42:54;;;;;;;78.07;46.47;;;7.80;99.90;;;;;;4916510;29;20040;-79
2022/01/20 08:45:22;;;;;;;89.45;49.55;;;7.80;99.90;;;;;;4916491;29;20528;-80
2022/01/20 08:47:52;;;;;;;89.20;50.92;;;7.80;99.90;;;;;;4917052;29;20074;-78
2022/01/20 08:50:18;;;;;;;88.55;53.47;;;7.80;99.90;;;;;;4918001;29;20046;-90
2022/01/20 08:52:44;;;;;;;111.88;57.25;;;7.80;99.90;;;;;;4919272;29;20488;-90
2022/01/20 08:55:10;;;;;;;109.93;56.70;;;7.70;99.90;;;;;;4918722;29;20080;-91
2022/01/20 08:57:36;;;;;;;93.07;51.35;;;7.70;99.90;;;;;;4918260;29;20036;-91
2022/01/20 09:00:03;;;;;;;92.93;52.08;;;7.60;99.90;;;;;;4919045;29;20078;-91
2022/01/20 09:02:30;;;;;;;113.25;56.63;;;7.60;99.90;;;;;;4917225;29;20058;-84
2022/01/20 09:04:56;;;;;;;102.20;58.35;;;7.50;99.90;;;;;;4899777;29;20648;-85
2022/01/20 09:07:22;;;;;;;130.48;64.88;;;7.50;99.90;;;;;;4917462;29;20052;-82
2022/01/20 09:09:49;;;;;;;120.00;63.25;;;7.50;99.90;;;;;;4916977;29;20473;-85
2022/01/20 09:15:27;;;;;;;103.57;58.90;;;7.50;99.90;;;;;;4916955;29;20075;-84
2022/01/20 09:15:28;;;;;;;111.72;62.97;;;7.50;99.90;;;;;;4916025;29;20121;-84
2022/01/20 09:18:08;;;;;;;106.60;60.47;;;7.50;99.90;;;;;;4915732;29;20059;-82
2022/01/20 09:20:35;;;;;;;104.30;58.83;;;7.50;99.90;;;;;;4915480;29;20028;-78
2022/01/20 09:23:01;;;;;;;104.13;57.42;;;7.60;99.90;;;;;;4915572;29;20040;-79
2022/01/20 09:25:27;;;;;;;99.35;58.22;;;7.60;99.90;;;;;;4915823;29;20024;-79
2022/01/20 09:27:55;;;;;;;102.03;55.25;;;7.60;99.90;;;;;;4915214;29;20385;-80
2022/01/20 09:30:24;;;;;;;101.45;58.33;;;7.60;99.90;;;;;;4915368;29;20032;-79
2022/01/20 09:32:58;;;;;;;101.75;56.53;;;7.50;99.90;;;;;;4916104;29;20040;-76
2022/01/20 09:35:35;;;;;;;102.93;56.80;;;7.50;99.90;;;;;;4915746;29;20044;-80
2022/01/20 09:38:03;;;;;;;101.97;56.33;;;7.50;99.90;;;;;;4915287;29;20035;-79
2022/01/20 09:40:31;;;;;;;101.82;57.58;;;7.50;99.90;;;;;;4915728;29;20076;-79
2022/01/20 09:42:57;;;;;;;106.25;58.25;;;7.50;99.90;;;;;;4916313;29;20103;-78
2022/01/20 09:45:23;;;;;;;108.63;57.92;;;7.30;99.90;;;;;;4919231;29;20422;-78
2022/01/20 09:47:49;;;;;;;110.47;58.53;;;7.30;99.90;;;;;;4919027;29;20024;-77
2022/01/20 09:50:19;;;;;;;104.80;56.70;;;7.40;99.90;;;;;;4918418;29;20382;-76
2022/01/20 09:52:49;;;;;;;97.43;54.28;;;7.30;99.90;;;;;;4918569;29;20009;-77
2022/01/20 09:55:15;;;;;;;96.95;56.67;;;7.30;99.90;;;;;;4919028;29;20067;-77
2022/01/20 09:57:42;;;;;;;102.10;57.90;;;7.20;99.90;;;;;;4916925;29;20554;-76
2022/01/20 10:00:11;;;;;;;111.13;58.83;;;7.20;99.90;;;;;;4918603;29;20035;-78
2022/01/20 10:02:57;;;;;;;98.20;56.08;;;7.20;99.90;;;;;;4919017;29;20074;-77
2022/01/20 10:05:41;;;;;;;110.95;55.85;;;7.20;99.90;;;;;;4919224;29;20032;-79
2022/01/20 10:08:09;;;;;;;105.60;57.33;;;7.20;99.90;;;;;;4919053;29;20052;-79
2022/01/20 10:10:39;;;;;;;105.72;56.03;;;7.20;99.90;;;;;;4918862;29;20016;-78
2022/01/20 10:13:07;;;;;;;98.40;55.85;;;7.20;99.90;;;;;;4918455;29;20028;-78
2022/01/20 10:15:33;;;;;;;102.97;54.08;;;7.20;99.90;;;;;;4918786;29;20012;-78
2022/01/20 10:18:08;;;;;;;99.05;55.00;;;7.20;99.90;;;;;;4919224;29;20499;-78
2022/01/20 10:20:35;;;;;;;96.70;51.85;;;7.20;99.90;;;;;;4916572;29;20024;-78
2022/01/20 10:23:01;;;;;;;102.93;54.10;;;7.20;99.90;;;;;;4918413;29;20083;-77
2022/01/20 10:25:32;;;;;;;93.85;51.63;;;7.20;99.90;;;;;;4918940;29;20396;-80
2022/01/20 10:27:58;;;;;;;81.93;48.85;;;7.20;99.90;;;;;;4906183;29;20028;-80
2022/01/20 10:30:27;;;;;;;85.43;46.38;;;7.20;99.90;;;;;;4917275;29;20035;-78
2022/01/20 10:32:58;;;;;;;77.32;43.90;;;7.20;99.90;;;;;;4917874;29;20488;-76
2022/01/20 10:35:26;;;;;;;77.00;42.37;;;7.10;99.90;;;;;;4904331;29;20044;-79
2022/01/20 10:38:00;;;;;;;69.80;39.97;;;7.20;99.90;;;;;;4900190;29;20491;-79
2022/01/20 10:40:26;;;;;;;70.78;43.20;;;7.20;99.90;;;;;;4915747;29;20114;-80
2022/01/20 10:42:52;;;;;;;70.53;41.45;;;7.20;99.90;;;;;;4917210;29;20521;-80
2022/01/20 10:45:24;;;;;;;68.32;37.25;;;7.30;99.90;;;;;;4917700;29;20043;-79
2022/01/20 10:47:53;;;;;;;60.53;35.92;;;7.30;99.90;;;;;;4913019;29;20032;-79
2022/01/20 10:50:23;;;;;;;58.25;33.65;;;7.30;99.90;;;;;;4917302;29;20127;-79
2022/01/20 10:52:52;;;;;;;58.22;35.47;;;7.30;99.90;;;;;;4915497;29;20083;-80
2022/01/20 10:55:23;;;;;;;61.53;35.70;;;7.30;99.90;;;;;;4916827;29;20536;-79
2022/01/20 10:57:50;;;;;;;64.72;37.17;;;7.40;99.90;;;;;;4918081;29;20481;-79
2022/01/20 11:00:19;;;;;;;61.58;36.60;;;7.50;99.90;;;;;;4917241;29;20481;-78
2022/01/20 11:02:54;;;;;;;63.17;35.05;;;7.50;99.90;;;;;;4916701;29;20103;-79
2022/01/20 11:05:20;;;;;;;61.30;34.88;;;7.50;99.90;;;;;;4917844;29;20445;-80
2022/01/20 11:07:47;;;;;;;58.50;34.35;;;7.60;99.90;;;;;;4918177;29;20443;-79
2022/01/20 11:10:14;;;;;;;54.47;32.67;;;7.70;99.90;;;;;;4917445;29;20020;-77
2022/01/20 11:12:41;;;;;;;56.92;34.00;;;7.80;99.90;;;;;;4917260;29;20473;-79
2022/01/20 11:15:10;;;;;;;52.15;32.63;;;7.90;99.90;;;;;;4917826;29;20028;-78
2022/01/20 11:17:40;;;;;;;56.45;32.90;;;8.00;99.90;;;;;;4917540;29;20477;-78
2022/01/20 11:20:15;;;;;;;48.70;30.65;;;8.00;99.90;;;;;;4917780;29;20422;-77
2022/01/20 11:23:01;;;;;;;50.03;30.80;;;8.20;99.90;;;;;;4900340;29;20114;-77
2022/01/20 11:25:28;;;;;;;61.53;34.30;;;8.20;99.90;;;;;;4917187;29;20028;-77
2022/01/20 11:28:07;;;;;;;56.50;34.00;;;8.30;99.90;;;;;;4917243;29;20111;-78
2022/01/20 11:30:35;;;;;;;57.97;35.70;;;8.40;99.90;;;;;;4917019;29;20533;-79
2022/01/20 11:33:11;;;;;;;53.90;32.28;;;8.40;99.90;;;;;;4917048;29;20044;-79
2022/01/20 11:35:47;;;;;;;55.13;30.77;;;8.50;99.90;;;;;;4917978;29;20051;-78
2022/01/20 11:38:16;;;;;;;54.60;30.60;;;8.60;99.90;;;;;;4918035;29;20031;-79
2022/01/20 11:41:08;;;;;;;47.78;30.80;;;8.60;99.90;;;;;;4900377;29;20052;-77
2022/01/20 11:43:39;;;;;;;57.88;32.08;;;8.70;99.90;;;;;;4914048;29;20404;-77
2022/01/20 11:46:16;;;;;;;61.75;34.67;;;8.70;99.90;;;;;;4917660;29;20032;-77
2022/01/20 11:49:07;;;;;;;50.42;31.73;;;8.80;99.90;;;;;;4917293;29;20016;-77
2022/01/20 11:51:47;;;;;;;50.88;30.60;;;8.80;99.90;;;;;;4916322;29;20047;-79
2022/01/20 11:54:26;;;;;;;48.88;29.88;;;8.80;99.90;;;;;;4915969;29;20069;-78
2022/01/20 11:57:05;;;;;;;48.38;28.85;;;8.80;99.90;;;;;;4899249;29;20028;-79
2022/01/20 11:59:41;;;;;;;45.00;27.70;;;8.90;99.90;;;;;;4917056;29;20088;-78
2022/01/20 12:02:07;;;;;;;45.17;28.27;;;9.00;99.90;;;;;;4888980;29;20470;-78
2022/01/20 12:04:39;;;;;;;40.65;26.60;;;9.00;99.90;;;;;;4897714;29;20040;-79
2022/01/20 12:07:06;;;;;;;39.63;26.13;;;9.10;99.90;;;;;;4896957;29;20656;-77
2022/01/20 12:09:37;;;;;;;45.47;27.63;;;9.10;99.90;;;;;;4904863;29;20032;-78
2022/01/20 12:12:05;;;;;;;50.47;28.05;;;9.20;99.90;;;;;;4915547;29;20035;-79
2022/01/20 12:14:38;;;;;;;45.20;28.20;;;9.20;99.90;;;;;;4915682;29;20028;-79
2022/01/20 12:17:03;;;;;;;48.40;29.13;;;9.30;99.90;;;;;;4915815;29;20516;-79
2022/01/20 12:19:30;;;;;;;42.85;28.60;;;9.30;99.90;;;;;;4916191;29;20032;-79
2022/01/20 12:21:55;;;;;;;45.53;30.20;;;9.40;99.90;;;;;;4911136;29;20434;-78
2022/01/20 12:24:21;;;;;;;46.78;29.42;;;9.30;99.90;;;;;;4886851;29;20033;-78
2022/01/20 12:26:47;;;;;;;50.55;31.60;;;9.30;99.90;;;;;;4882596;29;20043;-78
2022/01/20 12:29:13;;;;;;;51.33;31.83;;;9.40;99.90;;;;;;4898404;29;20036;-79
2022/01/20 12:31:55;;;;;;;59.88;33.63;;;9.40;99.90;;;;;;4914388;29;20540;-78
2022/01/20 12:34:22;;;;;;;52.75;30.98;;;9.40;99.90;;;;;;4916115;29;20032;-78
2022/01/20 12:36:58;;;;;;;51.63;30.95;;;9.50;99.90;;;;;;4915602;29;20029;-79
2022/01/20 12:39:26;;;;;;;46.72;29.00;;;9.50;99.90;;;;;;4915238;29;20465;-78
2022/01/20 12:41:57;;;;;;;46.45;30.00;;;9.50;99.90;;;;;;4915448;29;20511;-78
2022/01/20 12:44:23;;;;;;;47.33;31.20;;;9.60;99.90;;;;;;4913322;29;20039;-78
2022/01/20 12:46:49;;;;;;;49.78;29.40;;;9.60;99.90;;;;;;4915482;29;20024;-77
2022/01/20 12:49:17;;;;;;;51.13;27.50;;;9.60;99.90;;;;;;4915466;29;20437;-77
2022/01/20 12:51:53;;;;;;;53.00;28.95;;;9.50;99.90;;;;;;4912759;29;20370;-77
2022/01/20 12:54:27;;;;;;;48.50;28.90;;;9.50;99.90;;;;;;4914698;29;20036;-77
2022/01/20 12:56:55;;;;;;;50.25;30.95;;;9.40;99.90;;;;;;4898587;29;20036;-77
2022/01/20 12:59:32;;;;;;;55.53;29.55;;;9.40;99.90;;;;;;4898694;29;20454;-77
2022/01/20 13:02:00;;;;;;;58.00;33.47;;;9.30;99.90;;;;;;4915439;29;20089;-77
2022/01/20 13:04:29;;;;;;;68.55;38.70;;;9.30;99.90;;;;;;4893740;29;20031;-77
2022/01/20 13:06:58;;;;;;;79.78;41.30;;;9.30;99.90;;;;;;4914830;29;20103;-77
2022/01/20 13:09:40;;;;;;;80.75;43.53;;;9.30;99.90;;;;;;4915839;29;20034;-76
2022/01/20 13:12:09;;;;;;;73.03;42.95;;;9.20;99.90;;;;;;4915367;29;20028;-76
2022/01/20 13:14:44;;;;;;;78.63;43.08;;;9.20;99.90;;;;;;4916573;29;20036;-76
2022/01/20 13:17:24;;;;;;;80.90;44.45;;;9.20;99.90;;;;;;4915353;29;20099;-77
2022/01/20 13:19:54;;;;;;;72.03;41.53;;;9.10;99.90;;;;;;4896113;29;20032;-77
2022/01/20 13:22:39;;;;;;;72.80;40.25;;;9.10;99.90;;;;;;4902603;29;20370;-76
2022/01/20 13:25:14;;;;;;;59.38;35.42;;;9.00;99.90;;;;;;4914974;29;20578;-76
2022/01/20 13:27:52;;;;;;;56.03;34.70;;;9.00;99.90;;;;;;4914763;29;20107;-76
2022/01/20 13:30:30;;;;;;;60.00;32.85;;;9.00;99.90;;;;;;4912855;29;20031;-77
2022/01/20 13:32:59;;;;;;;56.00;30.58;;;9.00;99.90;;;;;;4893037;29;20511;-77
2022/01/20 13:35:25;;;;;;;58.28;34.17;;;9.10;99.90;;;;;;4914451;29;20024;-77
2022/01/20 13:38:03;;;;;;;58.80;35.00;;;9.00;99.90;;;;;;4898174;29;20409;-75
2022/01/20 13:40:29;;;;;;;57.97;33.40;;;9.10;99.90;;;;;;4914934;29;20068;-76
2022/01/20 13:45:53;;;;;;;64.90;38.22;;;9.00;99.90;;;;;;4916030;29;20120;-78
2022/01/20 13:48:29;;;;;;;64.43;39.58;;;9.00;99.90;;;;;;4915682;29;20107;-76
2022/01/20 13:50:57;;;;;;;69.05;41.25;;;8.90;99.90;;;;;;4915076;29;20027;-77
2022/01/20 13:53:27;;;;;;;76.45;42.78;;;8.90;99.90;;;;;;4915102;29;20043;-76